Time;durP1;ratioP1;P1;durP2;ratioP2;P2;SDS_P1;SDS_P2;PMS_P1;PMS_P2;Temp;Humidity;BMP_temperature;BMP_pressure;BME280_temperature;BME280_humidity;BME280_pressure;Samples;Min_cycle;Max_cycle;Signal;HPM_P1;HPM_P2
2022/08/23 00:00:47;;;;;;;11.05;8.18;;;17.50;99.90;;;;;;4970556;28;20117;-88
2022/08/23 00:03:15;;;;;;;12.98;8.38;;;17.50;99.90;;;;;;4971968;28;20088;-89
2022/08/23 00:05:41;;;;;;;11.07;7.93;;;17.50;99.90;;;;;;4989550;28;20513;-89
2022/08/23 00:08:06;;;;;;;13.88;8.05;;;17.50;99.90;;;;;;4968782;28;20049;-89
2022/08/23 00:10:32;;;;;;;11.10;7.82;;;17.40;99.90;;;;;;4988164;28;20042;-89
2022/08/23 00:12:57;;;;;;;14.48;8.27;;;17.30;99.90;;;;;;4971309;28;20038;-88
2022/08/23 00:15:24;;;;;;;11.70;7.93;;;17.30;99.90;;;;;;4970731;28;20050;-89
2022/08/23 00:17:49;;;;;;;10.18;7.70;;;17.30;99.90;;;;;;4987957;28;20056;-89
2022/08/23 00:20:17;;;;;;;11.48;8.30;;;17.20;99.90;;;;;;4971672;28;20121;-89
2022/08/23 00:22:43;;;;;;;13.20;8.18;;;17.20;99.90;;;;;;4971068;28;20042;-88
2022/08/23 00:25:10;;;;;;;11.05;8.00;;;17.10;99.90;;;;;;4987780;28;20038;-88
2022/08/23 00:27:36;;;;;;;12.07;8.15;;;17.10;99.90;;;;;;4971346;28;20042;-88
2022/08/23 00:30:05;;;;;;;12.98;8.80;;;17.20;99.90;;;;;;4969975;28;20043;-88
2022/08/23 00:32:34;;;;;;;15.63;9.63;;;17.20;99.90;;;;;;4971070;28;20042;-88
2022/08/23 00:35:00;;;;;;;12.15;9.32;;;17.20;99.90;;;;;;4970346;28;20093;-88
2022/08/23 00:37:28;;;;;;;16.65;10.10;;;17.20;99.90;;;;;;4969897;28;20039;-89
2022/08/23 00:39:54;;;;;;;13.85;9.50;;;17.20;99.90;;;;;;4969821;28;20087;-89
2022/08/23 00:48:16;;;;;;;13.95;9.23;;;17.00;99.90;;;;;;4972105;28;20050;-88
2022/08/23 00:50:53;;;;;;;12.30;9.95;;;16.90;99.90;;;;;;4970058;28;20169;-89
2022/08/23 00:53:23;;;;;;;12.35;9.75;;;16.90;99.90;;;;;;4984985;28;20073;-89
2022/08/23 00:55:53;;;;;;;14.03;9.97;;;16.90;99.90;;;;;;4955685;28;20035;-89
2022/08/23 00:58:19;;;;;;;15.95;11.25;;;16.90;99.90;;;;;;4956845;28;20487;-88
2022/08/23 01:00:48;;;;;;;15.88;10.82;;;16.90;99.90;;;;;;4982882;28;20072;-88
2022/08/23 01:03:15;;;;;;;14.00;10.95;;;16.90;99.90;;;;;;4992458;28;20051;-88
2022/08/23 01:06:04;;;;;;;13.95;9.85;;;16.90;99.90;;;;;;4974184;28;20080;-89
2022/08/23 01:08:33;;;;;;;13.68;10.23;;;16.90;99.90;;;;;;4970509;28;20049;-88
2022/08/23 01:11:10;;;;;;;13.98;10.23;;;16.90;99.90;;;;;;4957109;28;20391;-89
2022/08/23 01:13:51;;;;;;;14.77;10.10;;;16.80;99.90;;;;;;4991098;28;20384;-89
2022/08/23 01:16:40;;;;;;;13.90;10.70;;;16.70;99.90;;;;;;4992669;28;20057;-89
2022/08/23 01:19:15;;;;;;;13.52;10.10;;;16.70;99.90;;;;;;4959150;28;20053;-89
2022/08/23 01:21:52;;;;;;;14.10;11.35;;;16.80;99.90;;;;;;4972213;28;20034;-88
2022/08/23 01:24:19;;;;;;;14.85;10.40;;;16.80;99.90;;;;;;4958547;28;20133;-88
2022/08/23 01:26:46;;;;;;;14.25;9.95;;;16.80;99.90;;;;;;4991255;28;20042;-88
2022/08/23 01:29:12;;;;;;;13.77;11.15;;;16.80;99.90;;;;;;4973386;28;20050;-88
2022/08/23 01:31:38;;;;;;;14.10;11.07;;;16.90;99.90;;;;;;4989506;28;20042;-89
2022/08/23 01:34:10;;;;;;;16.73;12.00;;;16.90;99.90;;;;;;4973444;28;20476;-88
2022/08/23 01:36:36;;;;;;;;;;;16.90;99.90;;;;;;4992071;28;20427;-90
2022/08/23 01:39:03;;;;;;;15.10;11.57;;;16.80;99.90;;;;;;4956202;28;20429;-88
2022/08/23 01:41:29;;;;;;;13.68;12.25;;;16.80;99.90;;;;;;4958411;28;20075;-88
2022/08/23 01:43:54;;;;;;;15.90;12.80;;;16.80;99.90;;;;;;4973253;28;20042;-89
2022/08/23 01:46:22;;;;;;;16.00;12.85;;;16.80;99.90;;;;;;4990487;28;20042;-88
2022/08/23 01:48:50;;;;;;;15.75;12.70;;;16.80;99.90;;;;;;4990374;28;20030;-89
2022/08/23 01:51:18;;;;;;;15.50;12.60;;;16.80;99.90;;;;;;4968255;28;20054;-88
2022/08/23 01:53:45;;;;;;;13.75;11.90;;;16.70;99.90;;;;;;4958489;28;20043;-88
2022/08/23 01:56:12;;;;;;;17.27;13.13;;;16.70;99.90;;;;;;4991930;28;20403;-89
2022/08/23 01:58:37;;;;;;;14.70;12.63;;;16.70;99.90;;;;;;4974591;28;20042;-89
2022/08/23 02:01:04;;;;;;;16.20;13.18;;;16.70;99.90;;;;;;4988771;28;20057;-89
2022/08/23 02:03:34;;;;;;;17.10;13.93;;;16.70;99.90;;;;;;4973538;28;20375;-88
2022/08/23 02:05:59;;;;;;;16.25;14.15;;;16.70;99.90;;;;;;4988410;28;20527;-90
2022/08/23 02:11:14;;;;;;;15.48;13.50;;;16.70;99.90;;;;;;4971405;28;20120;-89
2022/08/23 02:13:40;;;;;;;15.38;12.15;;;16.60;99.90;;;;;;4991598;28;20054;-88
2022/08/23 02:16:06;;;;;;;16.67;13.68;;;16.60;99.90;;;;;;4953556;28;20066;-89
2022/08/23 02:18:32;;;;;;;17.40;15.18;;;16.60;99.90;;;;;;4952667;29;20373;-89
2022/08/23 02:20:57;;;;;;;16.77;13.93;;;16.60;99.90;;;;;;4962014;28;20045;-89
2022/08/23 02:23:23;;;;;;;19.45;14.45;;;16.60;99.90;;;;;;4971449;28;20035;-89
2022/08/23 02:25:50;;;;;;;17.25;13.60;;;16.60;99.90;;;;;;4971222;28;20451;-88
2022/08/23 02:28:17;;;;;;;17.50;14.80;;;16.50;99.90;;;;;;4971195;28;20042;-89
2022/08/23 02:30:46;;;;;;;16.95;13.63;;;16.50;99.90;;;;;;4971974;28;20049;-88
2022/08/23 02:33:12;;;;;;;16.40;13.75;;;16.40;99.90;;;;;;4970482;28;20050;-89
2022/08/23 02:35:39;;;;;;;16.27;13.45;;;16.40;99.90;;;;;;4968117;28;20047;-89
2022/08/23 02:38:07;;;;;;;14.88;13.15;;;16.40;99.90;;;;;;4970374;28;20053;-88
2022/08/23 02:40:34;;;;;;;16.13;12.45;;;16.30;99.90;;;;;;4964455;28;20542;-89
2022/08/23 02:42:59;;;;;;;14.05;12.02;;;16.30;99.90;;;;;;4969421;28;20381;-89
2022/08/23 02:45:26;;;;;;;15.85;12.93;;;16.20;99.90;;;;;;4952911;28;20100;-89
2022/08/23 02:47:52;;;;;;;15.32;12.50;;;16.20;99.90;;;;;;4970748;28;20126;-89
2022/08/23 02:50:18;;;;;;;15.43;12.95;;;16.20;99.90;;;;;;4970573;28;20118;-89
2022/08/23 02:52:44;;;;;;;14.35;12.80;;;16.10;99.90;;;;;;4971001;28;20527;-89
2022/08/23 02:55:10;;;;;;;13.80;12.32;;;16.10;99.90;;;;;;4970786;28;20077;-89
2022/08/23 02:57:37;;;;;;;15.07;12.95;;;16.10;99.90;;;;;;4971362;28;20046;-90
2022/08/23 03:00:03;;;;;;;16.95;13.88;;;16.10;99.90;;;;;;4953246;28;20120;-89
2022/08/23 03:02:29;;;;;;;15.25;13.60;;;16.00;99.90;;;;;;4967934;28;20119;-89
2022/08/23 03:04:55;;;;;;;15.18;13.57;;;16.00;99.90;;;;;;4951974;28;20047;-89
2022/08/23 03:07:20;;;;;;;16.27;13.88;;;16.10;99.90;;;;;;4969625;28;20038;-89
2022/08/23 03:09:46;;;;;;;17.73;15.18;;;15.90;99.90;;;;;;4958238;28;20081;-88
2022/08/23 03:12:11;;;;;;;19.75;15.23;;;15.90;99.90;;;;;;4970324;28;20074;-90
2022/08/23 03:14:37;;;;;;;16.83;14.60;;;15.90;99.90;;;;;;4969680;28;20065;-89
2022/08/23 03:17:04;;;;;;;17.40;13.93;;;15.80;99.90;;;;;;4967207;28;20085;-89
2022/08/23 03:19:29;;;;;;;18.02;14.65;;;15.80;99.90;;;;;;4968540;28;20050;-89
2022/08/23 03:21:55;;;;;;;18.67;14.10;;;15.80;99.90;;;;;;4984868;28;20039;-89
2022/08/23 03:24:21;;;;;;;15.77;13.43;;;15.80;99.90;;;;;;4969553;28;20428;-89
2022/08/23 03:26:46;;;;;;;16.30;13.52;;;15.80;99.90;;;;;;4968421;28;20625;-89
2022/08/23 03:29:12;;;;;;;16.27;13.82;;;15.70;99.90;;;;;;4969083;28;20411;-89
2022/08/23 03:31:38;;;;;;;17.92;15.45;;;15.70;99.90;;;;;;4968626;28;20407;-88
2022/08/23 03:34:04;;;;;;;17.10;14.82;;;15.70;99.90;;;;;;4967485;28;20121;-89
2022/08/23 03:36:30;;;;;;;18.17;14.88;;;15.70;99.90;;;;;;4947194;28;20042;-89
2022/08/23 03:38:56;;;;;;;15.80;13.52;;;15.70;99.90;;;;;;4966546;28;20185;-89
2022/08/23 03:41:22;;;;;;;16.65;13.57;;;15.70;99.90;;;;;;4952446;28;20399;-89
2022/08/23 03:43:48;;;;;;;16.55;14.73;;;15.70;99.90;;;;;;4969113;28;20528;-88
2022/08/23 03:46:21;;;;;;;16.48;14.20;;;15.70;99.90;;;;;;4951813;28;20202;-89
2022/08/23 03:48:49;;;;;;;14.73;13.20;;;15.70;99.90;;;;;;4967157;28;20507;-88
2022/08/23 03:51:15;;;;;;;14.48;12.98;;;15.70;99.90;;;;;;4966157;28;20034;-89
2022/08/23 03:53:41;;;;;;;12.85;11.50;;;15.80;99.90;;;;;;4968697;28;20038;-89
2022/08/23 03:56:07;;;;;;;11.90;10.70;;;15.70;99.90;;;;;;4951473;28;20046;-89
2022/08/23 03:58:32;;;;;;;11.55;10.35;;;15.80;99.90;;;;;;4968487;28;20090;-88
2022/08/23 04:00:58;;;;;;;11.48;10.27;;;15.70;99.90;;;;;;4967797;28;20046;-89
2022/08/23 04:03:24;;;;;;;13.52;11.75;;;15.70;99.90;;;;;;4968872;28;20042;-89
2022/08/23 04:05:50;;;;;;;13.00;11.70;;;15.70;99.90;;;;;;4950272;28;20393;-89
2022/08/23 04:08:15;;;;;;;14.35;12.85;;;15.70;99.90;;;;;;4967478;28;20055;-89
2022/08/23 04:10:41;;;;;;;16.20;14.15;;;15.80;99.90;;;;;;4969728;28;20041;-88
2022/08/23 04:13:09;;;;;;;14.60;13.10;;;15.80;99.90;;;;;;4984527;28;20106;-88
2022/08/23 04:15:35;;;;;;;14.27;12.75;;;15.70;99.90;;;;;;4968114;28;20059;-89
2022/08/23 04:18:01;;;;;;;13.50;12.10;;;15.70;99.90;;;;;;4968585;28;20157;-88
2022/08/23 04:20:27;;;;;;;12.07;10.80;;;15.60;99.90;;;;;;4968141;28;20182;-89
2022/08/23 04:22:54;;;;;;;13.55;12.15;;;15.60;99.90;;;;;;4968296;28;20130;-88
2022/08/23 04:25:20;;;;;;;13.90;12.10;;;15.60;99.90;;;;;;4968113;28;20077;-89
2022/08/23 04:27:45;;;;;;;14.85;12.25;;;15.60;99.90;;;;;;4969061;28;20039;-89
2022/08/23 04:30:12;;;;;;;13.93;12.27;;;15.50;99.90;;;;;;4968644;28;20545;-88
2022/08/23 04:32:38;;;;;;;18.65;16.75;;;15.50;99.90;;;;;;4950671;28;20050;-89
2022/08/23 04:35:04;;;;;;;19.30;16.80;;;15.60;99.90;;;;;;4966874;28;20058;-88
2022/08/23 04:37:30;;;;;;;18.40;16.50;;;15.60;99.90;;;;;;4983806;28;20042;-89
2022/08/23 04:42:40;;;;;;;20.05;17.95;;;15.70;99.90;;;;;;4969159;28;20086;-90
2022/08/23 04:45:06;;;;;;;21.52;19.42;;;15.70;99.90;;;;;;4965923;28;20631;-89
2022/08/23 04:47:32;;;;;;;20.42;18.50;;;15.70;99.90;;;;;;4965751;28;20059;-90
2022/08/23 04:49:58;;;;;;;21.52;19.42;;;15.80;99.90;;;;;;4966385;28;20118;-90
2022/08/23 04:52:24;;;;;;;20.83;18.60;;;15.80;99.90;;;;;;4964381;28;20051;-88
2022/08/23 04:54:49;;;;;;;21.00;18.83;;;15.80;99.90;;;;;;4948612;28;20038;-89
2022/08/23 04:57:15;;;;;;;21.08;18.75;;;15.80;99.90;;;;;;4951832;28;20145;-90
2022/08/23 04:59:42;;;;;;;20.02;17.90;;;15.80;99.90;;;;;;4968391;28;20125;-87
2022/08/23 05:02:07;;;;;;;20.92;18.92;;;15.80;99.90;;;;;;4951446;28;20043;-89
2022/08/23 05:04:33;;;;;;;20.13;18.13;;;15.80;99.90;;;;;;4952684;28;20257;-89
2022/08/23 05:06:58;;;;;;;20.25;18.23;;;15.90;99.90;;;;;;4951625;28;20051;-89
2022/08/23 05:09:25;;;;;;;20.92;18.85;;;15.90;99.90;;;;;;4970646;28;20047;-90
2022/08/23 05:11:51;;;;;;;20.67;18.60;;;16.00;99.90;;;;;;4966808;28;20079;-89
2022/08/23 05:14:17;;;;;;;22.02;19.77;;;16.00;99.90;;;;;;4968486;28;20129;-89
2022/08/23 05:16:42;;;;;;;22.05;19.67;;;16.00;99.90;;;;;;4968376;28;20047;-90
2022/08/23 05:19:08;;;;;;;20.95;18.95;;;16.10;99.90;;;;;;4951144;28;20042;-90
2022/08/23 05:21:34;;;;;;;20.05;18.05;;;16.10;99.90;;;;;;4968862;28;20038;-89
2022/08/23 05:23:59;;;;;;;20.88;18.80;;;16.20;99.90;;;;;;4952506;28;20051;-89
2022/08/23 05:26:25;;;;;;;20.88;18.98;;;16.20;99.90;;;;;;4969656;28;20391;-90
2022/08/23 05:28:51;;;;;;;20.02;17.75;;;16.20;99.90;;;;;;4968082;28;20039;-90
2022/08/23 05:31:20;;;;;;;20.25;18.35;;;16.30;99.90;;;;;;4969312;28;20491;-91
2022/08/23 05:33:46;;;;;;;20.58;18.42;;;16.30;99.90;;;;;;4949204;28;20396;-92
2022/08/23 05:36:14;;;;;;;20.85;18.73;;;16.40;99.90;;;;;;4968682;28;20399;-88
2022/08/23 05:38:40;;;;;;;20.90;18.73;;;16.40;99.90;;;;;;4965968;28;20050;-89
2022/08/23 05:41:06;;;;;;;20.75;18.50;;;16.50;99.90;;;;;;4966105;28;20379;-89
2022/08/23 05:43:32;;;;;;;20.85;18.85;;;16.50;99.90;;;;;;4969221;28;20053;-87
2022/08/23 05:46:03;;;;;;;22.17;19.98;;;16.60;99.90;;;;;;4968844;28;20439;-88
2022/08/23 05:48:30;;;;;;;;;;;16.70;99.90;;;;;;4973808;28;20047;-89
2022/08/23 05:50:56;;;;;;;19.77;17.90;;;16.70;99.90;;;;;;4967434;28;19922;-87
2022/08/23 05:53:22;;;;;;;19.30;17.40;;;16.80;99.90;;;;;;4969649;28;20091;-88
2022/08/23 05:55:48;;;;;;;20.45;18.35;;;16.90;99.90;;;;;;4969660;28;20058;-87
2022/08/23 05:58:14;;;;;;;21.65;19.55;;;17.00;99.90;;;;;;4972666;28;20042;-87
2022/08/23 06:00:39;;;;;;;22.02;19.75;;;17.00;99.90;;;;;;4970381;28;20049;-87
2022/08/23 06:03:05;;;;;;;20.92;19.02;;;17.10;99.90;;;;;;4965783;28;20035;-87
2022/08/23 06:05:30;;;;;;;20.30;18.40;;;17.20;99.90;;;;;;4948908;28;20097;-87
2022/08/23 06:07:59;;;;;;;19.27;17.48;;;17.30;99.90;;;;;;4952091;28;20675;-88
2022/08/23 06:10:24;;;;;;;20.60;18.60;;;17.40;99.90;;;;;;4969542;28;20100;-87
2022/08/23 06:12:50;;;;;;;19.88;18.00;;;17.50;99.90;;;;;;4954035;28;20038;-89
2022/08/23 06:15:16;;;;;;;18.48;16.63;;;17.50;99.90;;;;;;4983866;28;20050;-91
2022/08/23 06:17:42;;;;;;;18.00;16.33;;;17.70;99.90;;;;;;4992475;28;20054;-92
2022/08/23 06:20:09;;;;;;;19.33;17.42;;;17.70;99.90;;;;;;4973693;28;20043;-90
2022/08/23 06:22:34;;;;;;;18.25;16.45;;;17.80;99.90;;;;;;4975167;28;20061;-91
2022/08/23 06:25:00;;;;;;;18.45;16.55;;;17.90;99.90;;;;;;4974126;28;20038;-91
2022/08/23 06:27:26;;;;;;;18.55;16.90;;;18.00;99.90;;;;;;4958806;28;20498;-91
2022/08/23 06:29:51;;;;;;;18.63;16.83;;;18.10;99.90;;;;;;4991813;28;20046;-91
2022/08/23 06:32:17;;;;;;;17.48;15.65;;;18.20;99.90;;;;;;4974680;28;20046;-92
2022/08/23 06:34:42;;;;;;;17.52;15.80;;;18.30;99.90;;;;;;4974064;28;20046;-91
2022/08/23 06:37:11;;;;;;;17.30;15.55;;;18.40;99.90;;;;;;4974366;28;20034;-91
2022/08/23 06:39:37;;;;;;;18.88;16.98;;;18.50;99.90;;;;;;4974742;28;20034;-91
2022/08/23 06:42:10;;;;;;;17.25;15.45;;;18.50;99.90;;;;;;4974165;28;20046;-91
2022/08/23 06:44:36;;;;;;;17.65;15.85;;;18.60;99.90;;;;;;4974422;28;20038;-90
2022/08/23 06:47:03;;;;;;;17.08;15.38;;;18.70;99.90;;;;;;4956900;28;20550;-91
2022/08/23 06:49:29;;;;;;;17.75;15.85;;;18.80;99.90;;;;;;4973325;28;20515;-90
2022/08/23 06:51:58;;;;;;;16.02;14.50;;;19.00;99.90;;;;;;4957497;28;20170;-90
2022/08/23 06:54:28;;;;;;;18.67;16.55;;;19.10;99.90;;;;;;4958174;28;20042;-91
2022/08/23 06:56:54;;;;;;;15.38;13.98;;;19.20;99.90;;;;;;4957037;28;20046;-91
2022/08/23 06:59:21;;;;;;;14.32;12.82;;;19.40;99.90;;;;;;4974419;28;20112;-93
2022/08/23 07:02:00;;;;;;;13.90;12.57;;;19.50;99.90;;;;;;4957267;28;20050;-91
2022/08/23 07:04:33;;;;;;;13.70;12.23;;;19.50;99.90;;;;;;4957116;28;20047;-91
2022/08/23 07:07:00;;;;;;;13.82;12.27;;;19.50;99.90;;;;;;4956764;28;20093;-90
2022/08/23 07:09:27;;;;;;;15.02;13.50;;;19.40;99.90;;;;;;4974057;28;20105;-90
2022/08/23 07:11:53;;;;;;;14.13;12.55;;;19.40;99.90;;;;;;4973770;28;20048;-92
2022/08/23 07:14:20;;;;;;;15.73;13.40;;;19.40;99.90;;;;;;4991311;28;20054;-91
2022/08/23 07:16:53;;;;;;;15.05;13.38;;;19.50;99.90;;;;;;4973045;28;20122;-90
2022/08/23 07:19:22;;;;;;;16.25;13.32;;;19.50;99.90;;;;;;4972912;28;20121;-91
2022/08/23 07:21:48;;;;;;;15.15;13.60;;;19.50;99.90;;;;;;4957195;28;20101;-91
2022/08/23 07:24:16;;;;;;;14.38;12.88;;;19.60;99.90;;;;;;4973346;28;20034;-91
2022/08/23 07:26:44;;;;;;;14.15;12.65;;;19.70;99.90;;;;;;4973871;28;20043;-90
2022/08/23 07:29:11;;;;;;;15.52;14.10;;;19.70;99.90;;;;;;4990835;28;20415;-90
2022/08/23 07:31:45;;;;;;;15.88;13.00;;;19.90;99.90;;;;;;4973149;28;20077;-91
2022/08/23 07:34:12;;;;;;;14.15;12.73;;;20.10;99.90;;;;;;4972624;28;20551;-90
2022/08/23 07:36:40;;;;;;;14.20;12.55;;;20.20;99.90;;;;;;4973346;28;20042;-91
2022/08/23 07:39:08;;;;;;;15.20;11.85;;;20.40;99.90;;;;;;4972487;28;20132;-90
2022/08/23 07:41:34;;;;;;;13.80;12.40;;;20.50;99.90;;;;;;4957547;28;20050;-91
2022/08/23 07:44:02;;;;;;;14.10;11.20;;;20.60;99.90;;;;;;4989962;28;20046;-91
2022/08/23 07:46:29;;;;;;;12.65;10.63;;;20.80;99.90;;;;;;4972940;28;20046;-91
2022/08/23 07:48:59;;;;;;;16.27;10.95;;;20.90;99.90;;;;;;4955547;28;20045;-91
2022/08/23 07:51:27;;;;;;;13.80;10.60;;;21.00;99.90;;;;;;4973127;28;20050;-90
2022/08/23 07:53:52;;;;;;;12.13;10.82;;;21.10;99.90;;;;;;4987157;23;20050;-93
2022/08/23 07:56:20;;;;;;;12.40;10.93;;;21.20;99.90;;;;;;5011292;28;20062;-91
2022/08/23 07:58:46;;;;;;;12.48;11.15;;;21.20;99.90;;;;;;5008996;28;20046;-92
2022/08/23 08:01:15;;;;;;;12.40;10.40;;;21.30;99.90;;;;;;5009249;28;20120;-93
2022/08/23 08:03:42;;;;;;;15.00;11.43;;;21.40;99.90;;;;;;5005578;28;20052;-94
2022/08/23 08:06:17;;;;;;;15.10;12.10;;;21.40;99.90;;;;;;5009054;28;20107;-92
2022/08/23 08:08:44;;;;;;;13.25;11.18;;;21.50;99.90;;;;;;4992256;28;20037;-92
2022/08/23 08:11:11;;;;;;;13.40;11.18;;;21.60;99.90;;;;;;4992946;28;20045;-93
2022/08/23 08:13:41;;;;;;;13.45;11.48;;;21.60;99.90;;;;;;5010296;28;20046;-91
2022/08/23 08:16:07;;;;;;;13.52;11.32;;;21.60;99.90;;;;;;4992278;28;20037;-92
2022/08/23 08:18:34;;;;;;;12.60;10.90;;;21.70;99.90;;;;;;4978207;28;20038;-91
2022/08/23 08:21:00;;;;;;;14.38;10.18;;;21.80;99.90;;;;;;5001756;28;20050;-93
2022/08/23 08:23:28;;;;;;;13.57;10.30;;;21.80;99.90;;;;;;4989744;28;20053;-93
2022/08/23 08:26:02;;;;;;;13.07;10.70;;;21.90;99.90;;;;;;4972827;28;20135;-92
2022/08/23 08:28:28;;;;;;;12.95;10.48;;;22.00;99.90;;;;;;4989581;28;20046;-94
2022/08/23 08:30:53;;;;;;;12.93;9.77;;;22.10;99.90;;;;;;4988795;28;20042;-92
2022/08/23 08:33:19;;;;;;;10.45;8.75;;;22.20;99.90;;;;;;4978007;28;20502;-94
2022/08/23 08:35:48;;;;;;;14.18;9.35;;;22.20;99.90;;;;;;4990842;28;20049;-92
2022/08/23 08:38:13;;;;;;;11.35;9.55;;;22.30;99.90;;;;;;5010133;28;20053;-93
2022/08/23 08:40:40;;;;;;;12.40;10.25;;;22.30;99.90;;;;;;5010540;28;20037;-94
2022/08/23 08:43:20;;;;;;;11.82;9.18;;;22.30;99.90;;;;;;5010025;28;20064;-91
2022/08/23 08:46:01;;;;;;;11.75;9.10;;;22.30;99.90;;;;;;5008694;28;20052;-93
2022/08/23 08:48:33;;;;;;;11.23;8.75;;;22.40;99.90;;;;;;5010409;28;20049;-93
2022/08/23 08:51:06;;;;;;;9.95;7.82;;;22.40;99.90;;;;;;4990167;28;20088;-93
2022/08/23 08:53:40;;;;;;;11.85;8.63;;;22.50;99.90;;;;;;4974939;28;20149;-93
2022/08/23 08:56:24;;;;;;;11.32;8.77;;;22.60;99.90;;;;;;4973162;28;20042;-94
2022/08/23 08:58:54;;;;;;;10.38;8.23;;;22.90;99.90;;;;;;4972783;28;20042;-93
2022/08/23 09:01:23;;;;;;;10.60;7.78;;;22.90;99.90;;;;;;4990073;28;20046;-94
2022/08/23 09:03:49;;;;;;;11.85;9.25;;;23.10;99.90;;;;;;4990549;28;20045;-93
2022/08/23 09:06:34;;;;;;;10.95;8.15;;;23.10;99.90;;;;;;4991204;28;20382;-93
2022/08/23 09:09:25;;;;;;;12.70;8.73;;;23.20;99.90;;;;;;4997779;28;20042;-92
2022/08/23 09:12:00;;;;;;;11.25;8.35;;;23.30;99.90;;;;;;5009360;28;20474;-92
2022/08/23 09:14:55;;;;;;;10.70;8.18;;;23.40;99.90;;;;;;5009145;28;20049;-92
2022/08/23 09:17:42;;;;;;;17.75;9.80;;;23.40;99.90;;;;;;4993055;28;20045;-94
2022/08/23 09:20:09;;;;;;;10.90;7.80;;;23.50;99.90;;;;;;5011650;28;20483;-96
2022/08/23 09:22:47;;;;;;;10.60;8.60;;;23.50;99.90;;;;;;5011841;28;20096;-94
2022/08/23 09:25:15;;;;;;;10.77;6.97;;;23.60;99.90;;;;;;4994430;28;20129;-94
2022/08/23 09:27:43;;;;;;;9.82;7.22;;;23.90;99.90;;;;;;4992309;28;20510;-92
2022/08/23 09:30:13;;;;;;;9.13;6.85;;;23.80;99.90;;;;;;5009013;28;20050;-93
2022/08/23 09:32:42;;;;;;;11.93;7.43;;;23.80;99.90;;;;;;4976710;28;20045;-94
2022/08/23 09:35:11;;;;;;;10.43;7.90;;;23.70;99.90;;;;;;4994091;28;20047;-93
2022/08/23 09:37:56;;;;;;;9.73;7.35;;;24.00;99.90;;;;;;5001939;28;20047;-94
2022/08/23 09:40:42;;;;;;;11.13;6.47;;;24.00;99.90;;;;;;4976594;28;20054;-94
2022/08/23 09:43:18;;;;;;;12.63;7.45;;;24.00;99.90;;;;;;4992156;28;20050;-93
2022/08/23 09:45:50;;;;;;;16.77;8.95;;;24.00;99.90;;;;;;4992461;28;20038;-94
2022/08/23 09:48:42;;;;;;;14.32;8.93;;;24.00;99.90;;;;;;4992888;28;20057;-92
2022/08/23 09:51:23;;;;;;;9.20;5.90;;;24.00;99.90;;;;;;4996270;28;20571;-94
2022/08/23 09:54:10;;;;;;;8.45;5.43;;;24.10;99.90;;;;;;5011386;28;20042;-93
2022/08/23 09:56:44;;;;;;;11.70;5.90;;;24.10;99.90;;;;;;5011215;28;20052;-94
2022/08/23 09:59:37;;;;;;;9.63;5.47;;;24.20;99.90;;;;;;5012027;28;20379;-93
2022/08/23 10:02:03;;;;;;;10.88;5.55;;;24.10;99.90;;;;;;5011124;28;20046;-94
2022/08/23 10:04:37;;;;;;;9.25;6.32;;;24.10;99.90;;;;;;4995688;28;20092;-93
2022/08/23 10:07:26;;;;;;;10.02;7.47;;;24.20;99.90;;;;;;4999579;28;20140;-95
2022/08/23 10:09:53;;;;;;;9.88;5.60;;;24.20;99.90;;;;;;5008890;28;20050;-91
2022/08/23 10:12:19;;;;;;;10.32;5.55;;;24.20;99.90;;;;;;5012810;28;20046;-93
2022/08/23 10:14:45;;;;;;;8.23;4.88;;;24.40;99.90;;;;;;4994942;28;20053;-88
2022/08/23 10:17:19;;;;;;;8.15;4.43;;;24.40;99.90;;;;;;4995693;28;20398;-94
2022/08/23 10:20:04;;;;;;;9.88;4.53;;;24.50;99.90;;;;;;5013337;28;20045;-94
2022/08/23 10:22:44;;;;;;;11.15;5.85;;;24.50;99.90;;;;;;4994577;28;20132;-95
2022/08/23 10:25:29;;;;;;;9.80;5.50;;;24.50;99.90;;;;;;5001172;28;20049;-93
2022/08/23 10:31:18;;;;;;;8.05;4.70;;;24.70;99.90;;;;;;5012650;28;20088;-90
2022/08/23 10:34:10;;;;;;;9.75;4.93;;;24.80;99.90;;;;;;5017354;28;20052;-95
2022/08/23 10:37:03;;;;;;;7.90;3.97;;;24.90;99.90;;;;;;5027554;28;20470;-94
2022/08/23 10:39:30;;;;;;;10.32;4.90;;;24.90;99.90;;;;;;5013904;28;20415;-93
2022/08/23 10:42:20;;;;;;;7.15;4.03;;;24.90;99.90;;;;;;4994625;28;20072;-93
2022/08/23 10:45:09;;;;;;;8.07;4.53;;;25.00;99.90;;;;;;5010340;28;20042;-94
2022/08/23 10:47:57;;;;;;;9.07;5.15;;;25.00;99.90;;;;;;5011450;28;20052;-94
2022/08/23 10:50:26;;;;;;;9.65;5.72;;;25.10;99.90;;;;;;5011643;28;20056;-91
2022/08/23 10:53:04;;;;;;;8.55;5.35;;;25.20;99.90;;;;;;5011356;28;20050;-94
2022/08/23 10:56:12;;;;;;;7.55;5.10;;;25.30;99.90;;;;;;4996019;28;20066;-96
2022/08/23 10:59:00;;;;;;;8.00;5.35;;;25.30;99.90;;;;;;4988170;28;20092;-93
2022/08/23 11:01:57;;;;;;;10.18;4.78;;;25.40;99.90;;;;;;4981283;28;20085;-95
2022/08/23 11:04:31;;;;;;;10.80;4.57;;;25.50;99.90;;;;;;4991608;28;20058;-92
2022/08/23 11:06:59;;;;;;;7.30;3.85;;;25.50;99.90;;;;;;4974231;28;20136;-92
2022/08/23 11:09:25;;;;;;;8.30;4.05;;;25.50;99.90;;;;;;4990476;28;20057;-93
2022/08/23 11:12:17;;;;;;;8.05;4.07;;;25.60;99.90;;;;;;4976187;28;20042;-96
2022/08/23 11:14:59;;;;;;;9.07;4.65;;;25.60;99.90;;;;;;4988378;28;20195;-95
2022/08/23 11:17:51;;;;;;;8.93;4.00;;;25.60;99.90;;;;;;4994368;28;20050;-94
2022/08/23 11:20:52;;;;;;;7.50;3.45;;;25.70;99.90;;;;;;5012153;28;20125;-92
2022/08/23 11:23:23;;;;;;;9.07;3.65;;;25.70;99.90;;;;;;5010358;28;20077;-93
2022/08/23 11:25:49;;;;;;;8.60;3.60;;;25.70;99.90;;;;;;5009987;28;20037;-95
2022/08/23 11:28:20;;;;;;;8.80;4.00;;;25.70;99.90;;;;;;5010709;28;20064;-92
2022/08/23 11:31:09;;;;;;;8.10;3.50;;;25.80;99.90;;;;;;4989296;28;20049;-92
2022/08/23 11:33:51;;;;;;;9.27;3.70;;;25.80;99.90;;;;;;4990619;28;20044;-94
2022/08/23 11:36:23;;;;;;;7.55;4.00;;;25.80;99.90;;;;;;4990528;28;20046;-92
2022/08/23 11:38:48;;;;;;;8.15;3.42;;;25.70;99.90;;;;;;4989918;28;20038;-92
2022/08/23 11:41:22;;;;;;;7.43;3.20;;;25.70;99.90;;;;;;4989776;28;20386;-90
2022/08/23 11:44:12;;;;;;;8.20;3.50;;;25.60;99.90;;;;;;4990988;28;20049;-93
2022/08/23 11:46:53;;;;;;;7.13;3.53;;;25.80;99.90;;;;;;4952993;28;20050;-95
2022/08/23 11:49:28;;;;;;;12.20;4.55;;;25.80;99.90;;;;;;4991138;28;20110;-94
2022/08/23 11:52:25;;;;;;;12.75;3.92;;;25.90;99.90;;;;;;4973236;28;20085;-92
2022/08/23 11:55:05;;;;;;;9.05;3.72;;;25.90;99.90;;;;;;4990192;28;20058;-95
2022/08/23 11:57:50;;;;;;;8.52;3.85;;;26.00;99.90;;;;;;5006470;28;20057;-92
2022/08/23 12:00:25;;;;;;;7.80;3.80;;;26.00;99.90;;;;;;4991286;28;20403;-91
2022/08/23 12:03:00;;;;;;;8.38;3.47;;;26.20;99.90;;;;;;4973112;28;20057;-91
2022/08/23 12:05:40;;;;;;;8.20;3.63;;;26.10;99.90;;;;;;5006521;28;20042;-94
2022/08/23 12:08:06;;;;;;;8.43;3.80;;;26.20;99.90;;;;;;4990047;28;20053;-95
2022/08/23 12:10:40;;;;;;;7.82;3.70;;;26.20;99.90;;;;;;4989559;28;20050;-93
2022/08/23 12:13:19;;;;;;;8.00;3.67;;;26.30;99.90;;;;;;4973687;28;20459;-92
2022/08/23 12:16:24;;;;;;;9.77;3.80;;;26.30;99.90;;;;;;4989952;28;20062;-92
2022/08/23 12:18:49;;;;;;;10.25;3.83;;;26.30;99.90;;;;;;4994706;28;20042;-94
2022/08/23 12:21:26;;;;;;;8.13;3.45;;;26.40;98.70;;;;;;4973280;28;20046;-93
2022/08/23 12:23:57;;;;;;;6.82;3.10;;;26.40;99.90;;;;;;4972980;28;20042;-94
2022/08/23 12:26:24;;;;;;;7.07;3.15;;;26.50;99.90;;;;;;4972934;28;20054;-93
2022/08/23 12:29:00;;;;;;;7.18;3.08;;;26.50;99.50;;;;;;4988722;28;20038;-93
2022/08/23 12:31:50;;;;;;;7.47;3.15;;;26.70;99.30;;;;;;4990766;28;20402;-93
2022/08/23 12:34:31;;;;;;;;;;;26.60;99.90;;;;;;5004216;28;20049;-93
2022/08/23 12:37:35;;;;;;;8.25;3.40;;;26.50;99.90;;;;;;4981510;28;19922;-95
2022/08/23 12:40:05;;;;;;;9.13;3.75;;;26.60;99.10;;;;;;4972642;28;20426;-94
2022/08/23 12:42:35;;;;;;;8.20;3.72;;;26.60;99.10;;;;;;4974272;28;20070;-94
2022/08/23 12:45:22;;;;;;;9.00;3.65;;;26.70;98.30;;;;;;4989482;28;20061;-95
2022/08/23 12:47:59;;;;;;;9.05;3.60;;;26.70;99.00;;;;;;4989651;28;20137;-93
2022/08/23 12:50:36;;;;;;;8.52;4.03;;;26.70;99.00;;;;;;4992091;28;20069;-94
2022/08/23 12:53:05;;;;;;;7.47;3.40;;;26.90;98.00;;;;;;4989417;28;20672;-95
2022/08/23 12:55:36;;;;;;;7.30;3.70;;;26.80;98.30;;;;;;5007094;28;20554;-94
2022/08/23 12:58:03;;;;;;;;;;;27.00;98.10;;;;;;5014188;28;20085;-94
2022/08/23 13:00:50;;;;;;;8.05;3.55;;;26.80;99.20;;;;;;4996880;28;19953;-93
2022/08/23 13:03:23;;;;;;;7.05;3.08;;;26.90;99.10;;;;;;5013546;28;20041;-93
2022/08/23 13:05:56;;;;;;;8.48;3.35;;;27.00;98.90;;;;;;4995928;28;20042;-94